createdAt,value
2022-08-26T00:01:54.301Z,13.50
2022-08-26T00:04:23.760Z,13.50
2022-08-26T00:06:51.866Z,13.50
2022-08-26T00:09:18.929Z,13.40
2022-08-26T00:11:46.142Z,13.20
2022-08-26T00:14:15.499Z,13.10
2022-08-26T00:16:47.658Z,13.20
2022-08-26T00:19:18.020Z,13.20
2022-08-26T00:21:48.686Z,13.20
2022-08-26T00:24:18.000Z,13.20
2022-08-26T00:26:44.975Z,13.20
2022-08-26T00:29:12.548Z,13.30
2022-08-26T00:31:40.723Z,13.30
2022-08-26T00:34:09.601Z,13.10
2022-08-26T00:36:39.595Z,13.10
2022-08-26T00:39:08.257Z,13.10
2022-08-26T00:41:38.031Z,12.90
2022-08-26T00:44:05.705Z,12.80
2022-08-26T00:46:37.311Z,12.70
2022-08-26T00:49:14.909Z,12.90
2022-08-26T00:51:49.480Z,13.00
2022-08-26T00:54:18.457Z,13.00
2022-08-26T00:56:54.554Z,12.90
2022-08-26T00:59:22.075Z,12.90
2022-08-26T01:01:49.228Z,12.80
2022-08-26T01:04:20.251Z,12.70
2022-08-26T01:06:50.424Z,12.70
2022-08-26T01:09:18.859Z,12.60
2022-08-26T01:11:47.325Z,12.50
2022-08-26T01:14:15.982Z,12.40
2022-08-26T01:16:46.843Z,12.30
2022-08-26T01:19:24.362Z,12.30
2022-08-26T01:22:08.183Z,12.20
2022-08-26T01:24:36.462Z,12.30
2022-08-26T01:27:07.758Z,12.20
2022-08-26T01:29:36.261Z,12.20
2022-08-26T01:32:07.325Z,12.20
2022-08-26T01:34:39.123Z,12.20
2022-08-26T01:37:15.987Z,12.30
2022-08-26T01:39:47.457Z,12.30
2022-08-26T01:42:16.766Z,12.20
2022-08-26T01:44:52.379Z,12.10
2022-08-26T01:47:22.027Z,12.00
2022-08-26T01:49:53.716Z,12.00
2022-08-26T01:52:28.115Z,12.10
2022-08-26T01:54:57.496Z,11.90
2022-08-26T01:57:25.976Z,11.60
2022-08-26T01:59:57.638Z,11.50
2022-08-26T02:02:24.756Z,11.70
2022-08-26T02:04:58.426Z,11.80
2022-08-26T02:07:27.130Z,11.70
2022-08-26T02:09:55.057Z,11.80
2022-08-26T02:12:22.373Z,11.80
2022-08-26T02:14:56.081Z,12.00
2022-08-26T02:17:44.766Z,12.00
2022-08-26T02:20:16.034Z,11.90
2022-08-26T02:22:45.046Z,11.90
2022-08-26T02:25:39.777Z,11.90
2022-08-26T02:28:06.752Z,11.80
2022-08-26T02:30:34.186Z,11.60
2022-08-26T02:33:03.952Z,11.50
2022-08-26T02:35:34.794Z,11.50
2022-08-26T02:38:02.848Z,11.50
2022-08-26T02:40:41.171Z,11.40
2022-08-26T02:43:10.070Z,11.30
2022-08-26T02:45:37.487Z,11.30
2022-08-26T02:48:11.959Z,11.20
2022-08-26T02:50:39.933Z,11.40
2022-08-26T02:53:07.432Z,11.50
2022-08-26T02:55:34.756Z,11.30
2022-08-26T02:58:01.789Z,11.00
2022-08-26T03:00:30.432Z,11.00
2022-08-26T03:02:58.706Z,11.00
2022-08-26T03:05:25.910Z,11.00
2022-08-26T03:07:53.264Z,11.00
2022-08-26T03:10:22.143Z,11.00
2022-08-26T03:12:49.335Z,11.10
2022-08-26T03:15:20.163Z,11.20
2022-08-26T03:17:49.194Z,11.30
2022-08-26T03:20:17.974Z,11.40
2022-08-26T03:22:45.414Z,11.40
2022-08-26T03:25:15.438Z,11.50
2022-08-26T03:27:43.146Z,11.60
2022-08-26T03:30:30.601Z,11.60
2022-08-26T03:32:57.959Z,11.60
2022-08-26T03:35:25.889Z,11.50
2022-08-26T03:37:53.451Z,11.50
2022-08-26T03:40:21.464Z,11.40
2022-08-26T03:42:50.066Z,11.40
2022-08-26T03:45:18.398Z,11.40
2022-08-26T03:47:47.557Z,11.40
2022-08-26T03:50:22.650Z,11.40
2022-08-26T03:52:51.928Z,11.40
2022-08-26T03:55:20.656Z,11.40
2022-08-26T03:57:51.085Z,11.40
2022-08-26T04:00:18.756Z,11.60
2022-08-26T04:02:49.331Z,11.60
2022-08-26T04:05:17.919Z,11.60
2022-08-26T04:07:45.645Z,11.40
2022-08-26T04:10:15.321Z,11.40
2022-08-26T04:12:47.198Z,11.30
2022-08-26T04:15:15.914Z,11.30
2022-08-26T04:17:44.705Z,11.40
2022-08-26T04:20:17.195Z,11.30
2022-08-26T04:22:45.778Z,11.40
2022-08-26T04:25:13.493Z,11.40
2022-08-26T04:27:40.453Z,11.40
2022-08-26T04:30:09.087Z,11.30
2022-08-26T04:32:37.086Z,11.10
2022-08-26T04:35:04.981Z,11.10
2022-08-26T04:37:33.624Z,11.10
2022-08-26T04:40:00.743Z,11.20
2022-08-26T04:42:29.378Z,11.10
2022-08-26T04:44:56.295Z,11.10
2022-08-26T04:47:23.294Z,11.20
2022-08-26T04:49:51.809Z,11.20
2022-08-26T04:52:19.206Z,11.30
2022-08-26T04:54:46.108Z,11.40
2022-08-26T04:57:13.231Z,11.40
2022-08-26T04:59:40.352Z,11.40
2022-08-26T05:02:07.611Z,11.30
2022-08-26T05:04:36.152Z,11.30
2022-08-26T05:07:03.257Z,11.40
2022-08-26T05:09:30.646Z,11.40
2022-08-26T05:11:57.670Z,11.40
2022-08-26T05:14:24.574Z,11.30
2022-08-26T05:16:52.155Z,10.90
2022-08-26T05:19:19.606Z,10.70
2022-08-26T05:21:48.494Z,10.70
2022-08-26T05:24:16.703Z,10.70
2022-08-26T05:26:44.561Z,10.70
2022-08-26T05:29:12.240Z,10.70
2022-08-26T05:31:39.222Z,10.60
2022-08-26T05:34:07.036Z,10.80
2022-08-26T05:36:36.299Z,10.90
2022-08-26T05:39:05.676Z,10.90
2022-08-26T05:41:36.566Z,11.00
2022-08-26T05:44:08.709Z,11.10
2022-08-26T05:46:36.779Z,11.10
2022-08-26T05:49:05.680Z,11.20
2022-08-26T05:51:33.110Z,11.30
2022-08-26T05:54:02.460Z,11.40
2022-08-26T05:56:30.874Z,11.50
2022-08-26T05:58:59.749Z,11.50
2022-08-26T06:01:28.439Z,11.60
2022-08-26T06:04:00.724Z,11.70
2022-08-26T06:06:31.763Z,11.80
2022-08-26T06:09:00.225Z,11.80
2022-08-26T06:11:30.802Z,11.80
2022-08-26T06:14:03.978Z,11.90
2022-08-26T06:16:34.767Z,12.00
2022-08-26T06:19:03.560Z,11.90
2022-08-26T06:21:40.442Z,11.70
2022-08-26T06:24:30.799Z,11.50
2022-08-26T06:27:01.202Z,11.20
2022-08-26T06:29:31.703Z,11.10
2022-08-26T06:31:59.728Z,11.10
2022-08-26T06:34:30.579Z,11.10
2022-08-26T06:37:01.370Z,11.10
2022-08-26T06:39:30.847Z,11.20
2022-08-26T06:41:59.097Z,11.30
2022-08-26T06:44:26.955Z,11.40
2022-08-26T06:46:54.028Z,11.60
2022-08-26T06:49:25.873Z,11.70
2022-08-26T06:51:54.725Z,12.00
2022-08-26T06:54:22.420Z,12.10
2022-08-26T06:56:49.756Z,12.30
2022-08-26T06:59:16.782Z,12.40
2022-08-26T07:01:45.339Z,12.40
2022-08-26T07:04:15.757Z,12.40
2022-08-26T07:06:49.366Z,12.50
2022-08-26T07:09:17.485Z,12.50
2022-08-26T07:11:45.387Z,12.60
2022-08-26T07:14:12.881Z,12.50
2022-08-26T07:16:41.326Z,12.50
2022-08-26T07:19:10.659Z,12.60
2022-08-26T07:21:43.182Z,12.60
2022-08-26T07:24:11.339Z,12.60
2022-08-26T07:26:39.131Z,12.70
2022-08-26T07:29:12.516Z,12.70
2022-08-26T07:31:42.429Z,12.80
2022-08-26T07:34:11.083Z,12.80
2022-08-26T07:36:37.992Z,12.90
2022-08-26T07:39:06.267Z,13.00
2022-08-26T07:41:33.560Z,13.00
2022-08-26T07:44:01.239Z,13.00
2022-08-26T07:46:30.186Z,13.30
2022-08-26T07:48:58.366Z,13.50
2022-08-26T07:51:26.443Z,13.90
2022-08-26T07:53:54.956Z,14.10
2022-08-26T07:56:23.363Z,14.70
2022-08-26T07:58:53.667Z,15.40
2022-08-26T08:01:23.687Z,16.00
2022-08-26T08:03:51.813Z,16.50
2022-08-26T08:06:20.427Z,16.90
2022-08-26T08:08:47.777Z,17.30
2022-08-26T08:11:21.149Z,17.80
2022-08-26T08:13:49.202Z,17.90
2022-08-26T08:16:16.382Z,17.90
2022-08-26T08:18:43.295Z,17.80
2022-08-26T08:21:21.217Z,18.00
2022-08-26T08:23:49.352Z,18.30
2022-08-26T08:26:16.797Z,18.50
2022-08-26T08:28:44.057Z,18.40
2022-08-26T08:31:38.609Z,18.10
2022-08-26T08:34:07.423Z,18.00
2022-08-26T08:36:36.362Z,18.00
2022-08-26T08:39:03.725Z,18.30
2022-08-26T08:41:52.938Z,18.50
2022-08-26T08:46:59.355Z,18.50
2022-08-26T08:49:27.577Z,18.10
2022-08-26T08:51:56.132Z,18.20
2022-08-26T08:54:23.398Z,18.30
2022-08-26T08:57:12.157Z,18.20
2022-08-26T08:59:53.370Z,18.10
2022-08-26T09:02:47.936Z,18.20
2022-08-26T09:05:30.107Z,18.40
2022-08-26T09:08:04.884Z,18.50
2022-08-26T09:10:40.552Z,18.50
2022-08-26T09:13:13.675Z,18.70
2022-08-26T09:15:52.772Z,18.60
2022-08-26T09:18:31.704Z,18.50
2022-08-26T09:21:03.530Z,18.60
2022-08-26T09:23:35.930Z,18.50
2022-08-26T09:26:30.897Z,18.50
2022-08-26T09:29:01.235Z,18.50
2022-08-26T09:31:34.287Z,18.50
2022-08-26T09:34:06.206Z,18.30
2022-08-26T09:36:41.113Z,18.30
2022-08-26T09:39:37.992Z,18.20
2022-08-26T09:42:12.996Z,18.30
2022-08-26T09:45:03.884Z,18.10
2022-08-26T09:47:54.078Z,18.10
2022-08-26T09:50:29.342Z,18.10
2022-08-26T09:53:17.330Z,18.10
2022-08-26T09:55:50.858Z,18.20
2022-08-26T09:58:37.971Z,18.20
2022-08-26T10:01:15.459Z,18.40
2022-08-26T10:03:44.479Z,18.50
2022-08-26T10:06:17.063Z,18.50
2022-08-26T10:08:47.411Z,18.60
2022-08-26T10:11:33.119Z,18.60
2022-08-26T10:14:07.732Z,18.70
2022-08-26T10:16:53.555Z,18.80
2022-08-26T10:19:40.199Z,18.80
2022-08-26T10:22:33.122Z,18.90
2022-08-26T10:25:05.025Z,19.00
2022-08-26T10:27:40.575Z,19.10
2022-08-26T10:30:21.509Z,19.10
2022-08-26T10:33:10.808Z,19.20
2022-08-26T10:35:49.272Z,19.10
2022-08-26T10:38:20.473Z,19.20
2022-08-26T10:41:02.868Z,19.10
2022-08-26T10:44:02.378Z,19.00
2022-08-26T10:46:42.608Z,19.10
2022-08-26T10:49:15.465Z,19.00
2022-08-26T10:51:54.362Z,18.90
2022-08-26T10:54:40.819Z,18.80
2022-08-26T10:57:37.747Z,18.90
2022-08-26T11:00:41.499Z,18.80
2022-08-26T11:03:32.194Z,18.80
2022-08-26T11:06:27.954Z,18.90
2022-08-26T11:09:01.118Z,19.00
2022-08-26T11:11:40.226Z,19.00
2022-08-26T11:14:28.721Z,19.00
2022-08-26T11:16:58.974Z,19.30
2022-08-26T11:20:00.817Z,20.20
2022-08-26T11:22:33.057Z,21.10
2022-08-26T11:25:02.834Z,21.60
2022-08-26T11:27:36.010Z,21.80
2022-08-26T11:30:21.387Z,21.80
2022-08-26T11:32:54.434Z,21.70
2022-08-26T11:35:21.986Z,21.40
2022-08-26T11:37:54.532Z,21.20
2022-08-26T11:40:28.070Z,20.90
2022-08-26T11:43:07.835Z,20.80
2022-08-26T11:45:43.254Z,20.50
2022-08-26T11:48:22.582Z,20.50
2022-08-26T11:51:03.358Z,20.30
2022-08-26T11:53:33.349Z,20.20
2022-08-26T11:56:04.783Z,20.20
2022-08-26T11:58:32.285Z,20.00
2022-08-26T12:01:09.911Z,20.00
2022-08-26T12:03:50.147Z,19.90
2022-08-26T12:08:55.555Z,19.70
2022-08-26T12:11:26.462Z,19.70
2022-08-26T12:14:17.257Z,19.80
2022-08-26T12:16:44.254Z,19.80
2022-08-26T12:19:46.852Z,19.70
2022-08-26T12:22:27.538Z,19.40
2022-08-26T12:25:03.374Z,19.10
2022-08-26T12:27:42.526Z,19.00
2022-08-26T12:30:12.323Z,19.00
2022-08-26T12:33:22.649Z,19.00
2022-08-26T12:35:54.781Z,19.10
2022-08-26T12:38:25.427Z,19.00
2022-08-26T12:40:52.899Z,18.90
2022-08-26T12:43:38.855Z,18.90
2022-08-26T12:46:08.879Z,18.90
2022-08-26T12:48:40.532Z,18.90
2022-08-26T12:51:16.191Z,18.90
2022-08-26T12:53:44.214Z,18.90
2022-08-26T12:56:27.926Z,18.80
2022-08-26T12:59:23.960Z,18.80
2022-08-26T13:01:52.192Z,18.60
2022-08-26T13:04:40.638Z,18.50
2022-08-26T13:07:18.945Z,18.50
2022-08-26T13:09:45.917Z,18.50
2022-08-26T13:12:22.847Z,18.50
2022-08-26T13:14:50.905Z,18.60
2022-08-26T13:17:17.838Z,18.60
2022-08-26T13:19:44.760Z,18.60
2022-08-26T13:22:13.611Z,18.60
2022-08-26T13:24:43.162Z,18.50
2022-08-26T13:27:13.474Z,18.60
2022-08-26T13:29:41.459Z,18.70
2022-08-26T13:32:09.655Z,18.70
2022-08-26T13:34:38.238Z,18.60
2022-08-26T13:37:06.145Z,18.60
2022-08-26T13:39:33.413Z,18.60
2022-08-26T13:42:00.462Z,18.60
2022-08-26T13:44:27.767Z,18.60
2022-08-26T13:46:54.879Z,18.50
2022-08-26T13:49:22.653Z,18.40
2022-08-26T13:51:49.787Z,18.40
2022-08-26T13:54:16.770Z,18.40
2022-08-26T13:56:43.743Z,18.40
2022-08-26T13:59:10.657Z,18.30
2022-08-26T14:01:40.126Z,18.20
2022-08-26T14:04:07.345Z,18.20
2022-08-26T14:06:34.426Z,18.10
2022-08-26T14:09:01.388Z,18.10
2022-08-26T14:11:34.833Z,18.10
2022-08-26T14:14:17.217Z,18.10
2022-08-26T14:16:58.695Z,18.00
2022-08-26T14:19:28.479Z,18.10
2022-08-26T14:21:55.821Z,18.10
2022-08-26T14:24:23.032Z,18.10
2022-08-26T14:26:50.035Z,18.10
2022-08-26T14:29:17.112Z,18.10
2022-08-26T14:31:44.931Z,18.10
2022-08-26T14:34:13.937Z,18.10
2022-08-26T14:36:40.905Z,18.10
2022-08-26T14:39:11.690Z,18.00
2022-08-26T14:41:53.859Z,17.80
2022-08-26T14:44:25.696Z,17.60
2022-08-26T14:46:54.605Z,17.30
2022-08-26T14:49:23.849Z,17.20
2022-08-26T14:51:51.024Z,17.10
2022-08-26T14:54:19.013Z,17.20
2022-08-26T14:56:51.318Z,17.20
2022-08-26T14:59:25.518Z,17.10
2022-08-26T15:01:53.605Z,17.10
2022-08-26T15:04:21.636Z,17.20
2022-08-26T15:06:49.136Z,17.20
2022-08-26T15:09:16.834Z,17.20
2022-08-26T15:11:44.027Z,17.30
2022-08-26T15:14:19.546Z,17.40
2022-08-26T15:16:49.578Z,17.50
2022-08-26T15:19:17.177Z,17.60
2022-08-26T15:21:45.682Z,17.60
2022-08-26T15:24:13.211Z,17.60
2022-08-26T15:26:40.503Z,17.70
2022-08-26T15:29:07.406Z,17.70
2022-08-26T15:31:34.990Z,17.70
2022-08-26T15:34:06.265Z,17.80
2022-08-26T15:36:34.930Z,17.90
2022-08-26T15:39:02.288Z,17.90
2022-08-26T15:41:29.753Z,18.00
2022-08-26T15:43:57.091Z,18.00
2022-08-26T15:46:24.492Z,18.00
2022-08-26T15:48:52.004Z,17.90
2022-08-26T15:51:25.252Z,18.00
2022-08-26T15:53:53.093Z,18.00
2022-08-26T15:56:20.077Z,18.00
2022-08-26T15:58:47.066Z,18.10
2022-08-26T16:01:14.782Z,18.20
2022-08-26T16:03:51.988Z,18.30
2022-08-26T16:06:22.107Z,18.40
2022-08-26T16:08:50.184Z,18.50
2022-08-26T16:11:19.870Z,18.60
2022-08-26T16:13:47.855Z,18.50
2022-08-26T16:16:15.917Z,18.60
2022-08-26T16:18:43.523Z,18.60
2022-08-26T16:21:16.911Z,18.70
2022-08-26T16:23:45.297Z,18.70
2022-08-26T16:26:19.731Z,18.70
2022-08-26T16:28:47.552Z,18.90
2022-08-26T16:31:15.212Z,19.00
2022-08-26T16:33:42.177Z,19.40
2022-08-26T16:36:09.821Z,19.50
2022-08-26T16:38:37.681Z,19.50
2022-08-26T16:41:05.930Z,19.40
2022-08-26T16:43:32.930Z,19.20
2022-08-26T16:46:00.341Z,19.20
2022-08-26T16:48:27.566Z,19.10
2022-08-26T16:50:55.682Z,19.10
2022-08-26T16:53:23.225Z,18.90
2022-08-26T16:55:51.363Z,18.80
2022-08-26T16:58:22.000Z,18.70
2022-08-26T17:00:49.868Z,18.50
2022-08-26T17:03:17.206Z,18.50
2022-08-26T17:05:44.588Z,18.30
2022-08-26T17:08:14.526Z,18.20
2022-08-26T17:10:48.828Z,18.10
2022-08-26T17:13:34.790Z,18.00
2022-08-26T17:16:04.873Z,18.00
2022-08-26T17:18:32.882Z,17.80
2022-08-26T17:21:05.914Z,17.80
2022-08-26T17:23:33.227Z,17.70
2022-08-26T17:26:00.215Z,17.70
2022-08-26T17:28:27.324Z,17.60
2022-08-26T17:30:57.735Z,17.60
2022-08-26T17:33:25.390Z,17.60
2022-08-26T17:35:53.213Z,17.60
2022-08-26T17:38:21.364Z,17.50
2022-08-26T17:40:49.398Z,17.50
2022-08-26T17:43:17.261Z,17.40
2022-08-26T17:45:44.243Z,17.40
2022-08-26T17:48:11.958Z,17.30
2022-08-26T17:50:41.470Z,17.20
2022-08-26T17:53:17.841Z,17.20
2022-08-26T17:55:47.469Z,17.10
2022-08-26T17:58:16.363Z,17.10
2022-08-26T18:00:45.414Z,17.00
2022-08-26T18:03:12.482Z,17.00
2022-08-26T18:05:40.585Z,16.90
2022-08-26T18:08:07.509Z,16.80
2022-08-26T18:10:34.802Z,16.80
2022-08-26T18:13:01.803Z,16.80
2022-08-26T18:15:28.757Z,16.70
2022-08-26T18:17:55.738Z,16.70
2022-08-26T18:20:22.804Z,16.60
2022-08-26T18:22:49.747Z,16.50
2022-08-26T18:25:17.560Z,16.50
2022-08-26T18:27:44.694Z,16.40
2022-08-26T18:30:16.706Z,16.40
2022-08-26T18:32:44.524Z,16.30
2022-08-26T18:35:12.283Z,16.30
2022-08-26T18:37:39.779Z,16.30
2022-08-26T18:40:09.315Z,16.20
2022-08-26T18:42:36.800Z,16.20
2022-08-26T18:45:05.993Z,16.10
2022-08-26T18:47:33.807Z,16.10
2022-08-26T18:50:02.846Z,16.10
2022-08-26T18:52:30.660Z,16.10
2022-08-26T18:54:57.586Z,16.00
2022-08-26T18:57:24.501Z,16.00
2022-08-26T18:59:51.423Z,16.00
2022-08-26T19:02:18.476Z,16.00
2022-08-26T19:04:45.474Z,15.90
2022-08-26T19:07:12.421Z,15.90
2022-08-26T19:09:39.323Z,15.80
2022-08-26T19:12:06.602Z,15.80
2022-08-26T19:14:35.851Z,15.80
2022-08-26T19:17:03.688Z,15.70
2022-08-26T19:19:31.734Z,15.70
2022-08-26T19:21:58.798Z,15.60
2022-08-26T19:24:27.330Z,15.60
2022-08-26T19:26:58.417Z,15.60
2022-08-26T19:29:28.721Z,15.60
2022-08-26T19:31:56.359Z,15.60
2022-08-26T19:34:24.169Z,15.70
2022-08-26T19:36:53.231Z,15.70
2022-08-26T19:39:21.312Z,15.70
2022-08-26T19:41:48.321Z,15.60
2022-08-26T19:44:39.100Z,15.60
2022-08-26T19:47:08.106Z,15.50
2022-08-26T19:49:35.633Z,15.50
2022-08-26T19:52:03.261Z,15.40
2022-08-26T19:54:30.443Z,15.40
2022-08-26T19:56:57.494Z,15.30
2022-08-26T19:59:24.647Z,15.30
2022-08-26T20:02:00.591Z,15.30
2022-08-26T20:04:30.338Z,15.20
2022-08-26T20:07:00.602Z,15.20
2022-08-26T20:09:28.942Z,15.20
2022-08-26T20:11:56.777Z,15.30
2022-08-26T20:14:24.606Z,15.20
2022-08-26T20:16:51.638Z,15.20
2022-08-26T20:19:37.740Z,15.20
2022-08-26T20:22:05.529Z,15.20
2022-08-26T20:24:33.355Z,15.20
2022-08-26T20:27:03.240Z,15.20
2022-08-26T20:29:32.978Z,15.10
2022-08-26T20:31:59.982Z,15.20
2022-08-26T20:34:27.413Z,15.20
2022-08-26T20:36:54.711Z,15.20
2022-08-26T20:39:21.951Z,15.20
2022-08-26T20:41:49.820Z,15.20
2022-08-26T20:44:17.856Z,15.20
2022-08-26T20:46:45.356Z,15.10
2022-08-26T20:49:13.393Z,15.20
2022-08-26T20:51:43.181Z,15.10
2022-08-26T20:54:12.080Z,15.10
2022-08-26T20:56:39.727Z,15.10
2022-08-26T20:59:07.937Z,15.10
2022-08-26T21:01:37.005Z,15.10
2022-08-26T21:04:13.969Z,15.00
2022-08-26T21:06:42.341Z,15.10
2022-08-26T21:09:17.253Z,15.00
2022-08-26T21:11:45.271Z,15.00
2022-08-26T21:14:15.981Z,15.10
2022-08-26T21:16:45.432Z,15.10
2022-08-26T21:19:14.211Z,15.10
2022-08-26T21:21:41.956Z,15.10
2022-08-26T21:24:09.297Z,15.10
2022-08-26T21:26:36.555Z,15.10
2022-08-26T21:29:04.520Z,15.00
2022-08-26T21:31:32.218Z,15.00
2022-08-26T21:33:59.589Z,14.90
2022-08-26T21:36:27.049Z,15.00
2022-08-26T21:38:57.187Z,15.00
2022-08-26T21:41:25.051Z,15.00
2022-08-26T21:43:55.187Z,15.00
2022-08-26T21:46:24.642Z,15.00
2022-08-26T21:48:55.843Z,15.00
2022-08-26T21:51:26.021Z,15.10
2022-08-26T21:53:54.341Z,15.10
2022-08-26T21:56:22.993Z,15.10
2022-08-26T21:58:50.212Z,15.10
2022-08-26T22:01:23.190Z,15.00
2022-08-26T22:03:52.665Z,15.00
2022-08-26T22:06:22.929Z,15.00
2022-08-26T22:08:50.075Z,15.00
2022-08-26T22:11:18.658Z,15.00
2022-08-26T22:13:46.779Z,14.90
2022-08-26T22:16:13.876Z,15.00
2022-08-26T22:18:43.866Z,15.00
2022-08-26T22:21:16.030Z,14.90
2022-08-26T22:23:43.489Z,14.90
2022-08-26T22:26:12.388Z,14.90
2022-08-26T22:28:39.755Z,14.90
2022-08-26T22:31:08.693Z,14.90
2022-08-26T22:33:35.634Z,14.90
2022-08-26T22:36:03.075Z,14.90
2022-08-26T22:38:30.483Z,14.90
2022-08-26T22:41:00.329Z,14.90
2022-08-26T22:43:28.875Z,14.90
2022-08-26T22:45:56.328Z,14.90
2022-08-26T22:48:24.923Z,14.80
2022-08-26T22:50:58.255Z,14.80
2022-08-26T22:53:27.368Z,14.80
2022-08-26T22:55:54.568Z,14.80
2022-08-26T22:58:30.205Z,14.80
2022-08-26T23:00:59.362Z,14.90
2022-08-26T23:03:27.089Z,14.90
2022-08-26T23:05:55.651Z,14.80
2022-08-26T23:08:24.764Z,14.80
2022-08-26T23:10:52.297Z,14.80
2022-08-26T23:13:19.707Z,14.80
2022-08-26T23:15:46.746Z,14.80
2022-08-26T23:18:15.089Z,14.80
2022-08-26T23:20:42.763Z,14.80
2022-08-26T23:23:09.671Z,14.80
2022-08-26T23:25:36.589Z,14.80
2022-08-26T23:28:04.207Z,14.80
2022-08-26T23:30:32.607Z,14.80
2022-08-26T23:32:59.708Z,14.80
2022-08-26T23:35:27.257Z,14.80
2022-08-26T23:37:54.379Z,14.70
2022-08-26T23:40:28.133Z,14.70
2022-08-26T23:42:57.002Z,14.70
2022-08-26T23:45:25.490Z,14.60
2022-08-26T23:47:53.290Z,14.60
2022-08-26T23:50:46.145Z,14.60
2022-08-26T23:53:19.430Z,14.60
2022-08-26T23:55:52.224Z,14.60
2022-08-26T23:58:21.099Z,14.60
